sensor_id;sensor_type;location;lat;lon;timestamp;temperature;humidity
5017;DHT22;2527;50.892;16.706;2024-02-23T00:02:06;13.00;99.90
5017;DHT22;2527;50.892;16.706;2024-02-23T00:04:34;13.00;99.90
5017;DHT22;2527;50.892;16.706;2024-02-23T00:07:00;13.00;99.90
5017;DHT22;2527;50.892;16.706;2024-02-23T00:09:28;13.00;99.90
5017;DHT22;2527;50.892;16.706;2024-02-23T00:11:54;13.00;99.90
5017;DHT22;2527;50.892;16.706;2024-02-23T00:14:19;13.00;99.90
5017;DHT22;2527;50.892;16.706;2024-02-23T00:16:46;13.00;99.90
5017;DHT22;2527;50.892;16.706;2024-02-23T00:19:13;13.00;99.90
5017;DHT22;2527;50.892;16.706;2024-02-23T00:21:39;13.90;99.90
5017;DHT22;2527;50.892;16.706;2024-02-23T00:24:05;13.00;99.90
5017;DHT22;2527;50.892;16.706;2024-02-23T00:26:31;13.00;99.90
5017;DHT22;2527;50.892;16.706;2024-02-23T00:28:57;13.00;99.90
5017;DHT22;2527;50.892;16.706;2024-02-23T00:31:23;13.00;99.90
5017;DHT22;2527;50.892;16.706;2024-02-23T00:33:49;13.00;99.90
5017;DHT22;2527;50.892;16.706;2024-02-23T00:36:15;13.00;99.90
5017;DHT22;2527;50.892;16.706;2024-02-23T00:38:42;13.10;99.90
5017;DHT22;2527;50.892;16.706;2024-02-23T00:41:07;13.10;99.90
5017;DHT22;2527;50.892;16.706;2024-02-23T00:43:39;13.10;99.90
5017;DHT22;2527;50.892;16.706;2024-02-23T00:46:06;13.10;99.90
5017;DHT22;2527;50.892;16.706;2024-02-23T00:48:32;13.10;99.90
5017;DHT22;2527;50.892;16.706;2024-02-23T00:50:57;13.10;99.90
5017;DHT22;2527;50.892;16.706;2024-02-23T00:53:26;13.10;99.90
5017;DHT22;2527;50.892;16.706;2024-02-23T00:55:53;13.10;99.90
5017;DHT22;2527;50.892;16.706;2024-02-23T00:58:20;13.10;99.90
5017;DHT22;2527;50.892;16.706;2024-02-23T01:00:49;13.10;99.90
5017;DHT22;2527;50.892;16.706;2024-02-23T01:03:14;13.00;99.90
5017;DHT22;2527;50.892;16.706;2024-02-23T01:05:40;13.00;99.90
5017;DHT22;2527;50.892;16.706;2024-02-23T01:08:08;13.10;99.90
5017;DHT22;2527;50.892;16.706;2024-02-23T01:10:34;13.00;99.90
5017;DHT22;2527;50.892;16.706;2024-02-23T01:13:00;13.00;99.90
5017;DHT22;2527;50.892;16.706;2024-02-23T01:15:25;13.10;99.90
5017;DHT22;2527;50.892;16.706;2024-02-23T01:17:51;13.00;99.90
5017;DHT22;2527;50.892;16.706;2024-02-23T01:20:17;13.10;99.90
5017;DHT22;2527;50.892;16.706;2024-02-23T01:22:43;13.20;99.90
5017;DHT22;2527;50.892;16.706;2024-02-23T01:25:09;13.20;99.90
5017;DHT22;2527;50.892;16.706;2024-02-23T01:27:35;13.20;99.90
5017;DHT22;2527;50.892;16.706;2024-02-23T01:30:02;13.20;99.90
5017;DHT22;2527;50.892;16.706;2024-02-23T01:32:28;13.20;99.90
5017;DHT22;2527;50.892;16.706;2024-02-23T01:34:54;13.20;99.90
5017;DHT22;2527;50.892;16.706;2024-02-23T01:37:20;13.20;99.90
5017;DHT22;2527;50.892;16.706;2024-02-23T01:39:45;13.20;99.90
5017;DHT22;2527;50.892;16.706;2024-02-23T01:42:12;13.20;99.90
5017;DHT22;2527;50.892;16.706;2024-02-23T01:44:38;13.20;99.90
5017;DHT22;2527;50.892;16.706;2024-02-23T01:47:04;13.20;99.90
5017;DHT22;2527;50.892;16.706;2024-02-23T01:49:30;13.20;99.90
5017;DHT22;2527;50.892;16.706;2024-02-23T01:51:59;13.20;99.90
5017;DHT22;2527;50.892;16.706;2024-02-23T01:54:26;13.20;99.90
5017;DHT22;2527;50.892;16.706;2024-02-23T01:56:53;13.20;99.90
5017;DHT22;2527;50.892;16.706;2024-02-23T01:59:20;13.20;99.90
5017;DHT22;2527;50.892;16.706;2024-02-23T02:04:12;13.20;99.90
5017;DHT22;2527;50.892;16.706;2024-02-23T02:06:38;13.20;99.90
5017;DHT22;2527;50.892;16.706;2024-02-23T02:09:03;13.20;99.90
5017;DHT22;2527;50.892;16.706;2024-02-23T02:11:29;13.20;99.90
5017;DHT22;2527;50.892;16.706;2024-02-23T02:13:55;13.20;99.90
5017;DHT22;2527;50.892;16.706;2024-02-23T02:16:20;13.20;99.90
5017;DHT22;2527;50.892;16.706;2024-02-23T02:18:47;13.20;99.90
5017;DHT22;2527;50.892;16.706;2024-02-23T02:21:12;13.20;99.90
5017;DHT22;2527;50.892;16.706;2024-02-23T02:23:41;13.20;99.90
5017;DHT22;2527;50.892;16.706;2024-02-23T02:26:07;13.20;99.90
5017;DHT22;2527;50.892;16.706;2024-02-23T02:28:33;12.70;99.90
5017;DHT22;2527;50.892;16.706;2024-02-23T02:30:59;13.20;99.90
5017;DHT22;2527;50.892;16.706;2024-02-23T02:33:25;13.20;99.90
5017;DHT22;2527;50.892;16.706;2024-02-23T02:35:50;13.20;99.90
5017;DHT22;2527;50.892;16.706;2024-02-23T02:38:16;13.20;99.90
5017;DHT22;2527;50.892;16.706;2024-02-23T02:40:42;13.30;99.90
5017;DHT22;2527;50.892;16.706;2024-02-23T02:43:07;13.30;99.90
5017;DHT22;2527;50.892;16.706;2024-02-23T02:45:33;13.30;99.90
5017;DHT22;2527;50.892;16.706;2024-02-23T02:48:02;13.40;99.90
5017;DHT22;2527;50.892;16.706;2024-02-23T02:50:28;13.40;99.90
5017;DHT22;2527;50.892;16.706;2024-02-23T02:52:53;13.50;99.90
5017;DHT22;2527;50.892;16.706;2024-02-23T02:55:19;13.50;99.90
5017;DHT22;2527;50.892;16.706;2024-02-23T02:57:45;13.50;99.90
5017;DHT22;2527;50.892;16.706;2024-02-23T03:00:11;13.60;99.90
5017;DHT22;2527;50.892;16.706;2024-02-23T03:02:37;13.60;99.90
5017;DHT22;2527;50.892;16.706;2024-02-23T03:05:03;13.60;99.90
5017;DHT22;2527;50.892;16.706;2024-02-23T03:07:28;13.60;99.90
5017;DHT22;2527;50.892;16.706;2024-02-23T03:09:54;13.70;99.90
5017;DHT22;2527;50.892;16.706;2024-02-23T03:12:20;13.60;99.90
5017;DHT22;2527;50.892;16.706;2024-02-23T03:14:46;13.70;99.90
5017;DHT22;2527;50.892;16.706;2024-02-23T03:17:11;13.70;99.90
5017;DHT22;2527;50.892;16.706;2024-02-23T03:19:37;13.70;99.90
5017;DHT22;2527;50.892;16.706;2024-02-23T03:22:03;13.70;99.90
5017;DHT22;2527;50.892;16.706;2024-02-23T03:24:29;13.70;99.90
5017;DHT22;2527;50.892;16.706;2024-02-23T03:26:56;13.70;99.90
5017;DHT22;2527;50.892;16.706;2024-02-23T03:29:24;13.70;99.90
5017;DHT22;2527;50.892;16.706;2024-02-23T03:31:52;13.70;99.90
5017;DHT22;2527;50.892;16.706;2024-02-23T03:34:18;13.70;99.90
5017;DHT22;2527;50.892;16.706;2024-02-23T03:36:43;13.70;99.90
5017;DHT22;2527;50.892;16.706;2024-02-23T03:39:09;13.70;99.90
5017;DHT22;2527;50.892;16.706;2024-02-23T03:41:35;13.70;99.90
5017;DHT22;2527;50.892;16.706;2024-02-23T03:44:02;13.70;99.90
5017;DHT22;2527;50.892;16.706;2024-02-23T03:46:27;13.70;99.90
5017;DHT22;2527;50.892;16.706;2024-02-23T03:48:54;13.70;99.90
5017;DHT22;2527;50.892;16.706;2024-02-23T03:51:19;13.70;99.90
5017;DHT22;2527;50.892;16.706;2024-02-23T03:53:45;13.80;99.90
5017;DHT22;2527;50.892;16.706;2024-02-23T03:56:11;13.80;99.90
5017;DHT22;2527;50.892;16.706;2024-02-23T03:58:42;13.80;99.90
5017;DHT22;2527;50.892;16.706;2024-02-23T04:01:08;13.80;99.90
5017;DHT22;2527;50.892;16.706;2024-02-23T04:03:33;13.90;99.90
5017;DHT22;2527;50.892;16.706;2024-02-23T04:05:59;13.90;99.90
5017;DHT22;2527;50.892;16.706;2024-02-23T04:08:25;13.90;99.90
5017;DHT22;2527;50.892;16.706;2024-02-23T04:10:50;13.90;99.90
5017;DHT22;2527;50.892;16.706;2024-02-23T04:13:16;14.00;99.90
5017;DHT22;2527;50.892;16.706;2024-02-23T04:15:43;14.00;99.90
5017;DHT22;2527;50.892;16.706;2024-02-23T04:18:12;14.00;99.90
5017;DHT22;2527;50.892;16.706;2024-02-23T04:20:46;14.00;99.90
5017;DHT22;2527;50.892;16.706;2024-02-23T04:23:12;14.00;99.90
5017;DHT22;2527;50.892;16.706;2024-02-23T04:25:37;14.00;99.90
5017;DHT22;2527;50.892;16.706;2024-02-23T04:28:03;14.00;99.90
5017;DHT22;2527;50.892;16.706;2024-02-23T04:30:30;14.50;99.90
5017;DHT22;2527;50.892;16.706;2024-02-23T04:32:56;13.90;99.90
5017;DHT22;2527;50.892;16.706;2024-02-23T04:35:23;13.90;99.90
5017;DHT22;2527;50.892;16.706;2024-02-23T04:37:48;13.90;99.90
5017;DHT22;2527;50.892;16.706;2024-02-23T04:40:16;13.80;99.90
5017;DHT22;2527;50.892;16.706;2024-02-23T04:42:43;13.80;99.90
5017;DHT22;2527;50.892;16.706;2024-02-23T04:45:08;13.80;99.90
5017;DHT22;2527;50.892;16.706;2024-02-23T04:47:35;13.80;99.90
5017;DHT22;2527;50.892;16.706;2024-02-23T04:50:00;13.80;99.90
5017;DHT22;2527;50.892;16.706;2024-02-23T04:52:27;13.80;99.90
5017;DHT22;2527;50.892;16.706;2024-02-23T04:54:53;13.80;99.90
5017;DHT22;2527;50.892;16.706;2024-02-23T04:57:21;13.80;99.90
5017;DHT22;2527;50.892;16.706;2024-02-23T04:59:47;13.70;99.90
5017;DHT22;2527;50.892;16.706;2024-02-23T05:02:13;13.70;99.90
5017;DHT22;2527;50.892;16.706;2024-02-23T05:04:40;13.70;99.90
5017;DHT22;2527;50.892;16.706;2024-02-23T05:07:06;13.60;99.90
5017;DHT22;2527;50.892;16.706;2024-02-23T05:09:32;13.60;99.90
5017;DHT22;2527;50.892;16.706;2024-02-23T05:11:57;13.60;99.90
5017;DHT22;2527;50.892;16.706;2024-02-23T05:14:23;13.60;99.90
5017;DHT22;2527;50.892;16.706;2024-02-23T05:16:49;13.60;99.90
5017;DHT22;2527;50.892;16.706;2024-02-23T05:19:15;13.60;99.90
5017;DHT22;2527;50.892;16.706;2024-02-23T05:21:41;13.60;99.90
5017;DHT22;2527;50.892;16.706;2024-02-23T05:24:07;13.60;99.90
5017;DHT22;2527;50.892;16.706;2024-02-23T05:26:33;13.60;99.90
5017;DHT22;2527;50.892;16.706;2024-02-23T05:28:59;13.70;99.90
5017;DHT22;2527;50.892;16.706;2024-02-23T05:34:08;13.70;99.90
5017;DHT22;2527;50.892;16.706;2024-02-23T05:36:35;13.70;99.90
5017;DHT22;2527;50.892;16.706;2024-02-23T05:39:01;13.70;99.90
5017;DHT22;2527;50.892;16.706;2024-02-23T05:41:26;13.70;99.90
5017;DHT22;2527;50.892;16.706;2024-02-23T05:43:52;13.70;99.90
5017;DHT22;2527;50.892;16.706;2024-02-23T05:46:17;13.70;99.90
5017;DHT22;2527;50.892;16.706;2024-02-23T05:48:43;13.70;99.90
5017;DHT22;2527;50.892;16.706;2024-02-23T05:51:10;13.60;99.90
5017;DHT22;2527;50.892;16.706;2024-02-23T05:53:35;13.60;99.90
5017;DHT22;2527;50.892;16.706;2024-02-23T05:56:03;13.60;99.90
5017;DHT22;2527;50.892;16.706;2024-02-23T05:58:29;13.60;99.90
5017;DHT22;2527;50.892;16.706;2024-02-23T06:00:55;13.60;99.90
5017;DHT22;2527;50.892;16.706;2024-02-23T06:03:20;13.60;99.90
5017;DHT22;2527;50.892;16.706;2024-02-23T06:05:46;13.60;99.90
5017;DHT22;2527;50.892;16.706;2024-02-23T06:08:12;13.60;99.90
5017;DHT22;2527;50.892;16.706;2024-02-23T06:10:37;13.60;99.90
5017;DHT22;2527;50.892;16.706;2024-02-23T06:13:03;13.60;99.90
5017;DHT22;2527;50.892;16.706;2024-02-23T06:15:29;13.70;99.90
5017;DHT22;2527;50.892;16.706;2024-02-23T06:17:55;13.30;99.90
5017;DHT22;2527;50.892;16.706;2024-02-23T06:20:21;13.60;99.90
5017;DHT22;2527;50.892;16.706;2024-02-23T06:22:46;13.60;99.90
5017;DHT22;2527;50.892;16.706;2024-02-23T06:25:14;13.60;99.90
5017;DHT22;2527;50.892;16.706;2024-02-23T06:27:39;13.60;99.90
5017;DHT22;2527;50.892;16.706;2024-02-23T06:30:06;13.60;99.90
5017;DHT22;2527;50.892;16.706;2024-02-23T06:32:32;13.70;99.90
5017;DHT22;2527;50.892;16.706;2024-02-23T06:34:58;13.60;99.90
5017;DHT22;2527;50.892;16.706;2024-02-23T06:37:24;13.60;99.90
5017;DHT22;2527;50.892;16.706;2024-02-23T06:39:50;13.60;99.90
5017;DHT22;2527;50.892;16.706;2024-02-23T06:42:22;13.60;99.90
5017;DHT22;2527;50.892;16.706;2024-02-23T06:44:49;13.60;99.90
5017;DHT22;2527;50.892;16.706;2024-02-23T06:47:15;13.60;99.90
5017;DHT22;2527;50.892;16.706;2024-02-23T06:49:41;13.70;99.90
5017;DHT22;2527;50.892;16.706;2024-02-23T06:52:07;13.60;99.90
5017;DHT22;2527;50.892;16.706;2024-02-23T06:54:33;13.60;99.90
5017;DHT22;2527;50.892;16.706;2024-02-23T06:56:58;13.60;99.90
5017;DHT22;2527;50.892;16.706;2024-02-23T06:59:24;13.60;99.90
5017;DHT22;2527;50.892;16.706;2024-02-23T07:01:50;13.60;99.90
5017;DHT22;2527;50.892;16.706;2024-02-23T07:04:17;13.60;99.90
5017;DHT22;2527;50.892;16.706;2024-02-23T07:06:43;13.60;99.90
5017;DHT22;2527;50.892;16.706;2024-02-23T07:09:09;13.60;99.90
5017;DHT22;2527;50.892;16.706;2024-02-23T07:11:37;13.50;99.90
5017;DHT22;2527;50.892;16.706;2024-02-23T07:14:06;13.50;99.90
5017;DHT22;2527;50.892;16.706;2024-02-23T07:16:38;13.50;99.90
5017;DHT22;2527;50.892;16.706;2024-02-23T07:19:07;13.50;99.90
5017;DHT22;2527;50.892;16.706;2024-02-23T07:21:42;13.50;99.90
5017;DHT22;2527;50.892;16.706;2024-02-23T07:24:08;13.50;99.90
5017;DHT22;2527;50.892;16.706;2024-02-23T07:26:33;13.50;99.90
5017;DHT22;2527;50.892;16.706;2024-02-23T07:28:59;13.60;99.90
5017;DHT22;2527;50.892;16.706;2024-02-23T07:31:25;13.60;99.90
5017;DHT22;2527;50.892;16.706;2024-02-23T07:33:50;13.60;99.90
5017;DHT22;2527;50.892;16.706;2024-02-23T07:36:19;13.60;99.90
5017;DHT22;2527;50.892;16.706;2024-02-23T07:38:46;13.50;99.90
5017;DHT22;2527;50.892;16.706;2024-02-23T07:41:12;13.60;99.90
5017;DHT22;2527;50.892;16.706;2024-02-23T07:43:40;13.60;99.90
5017;DHT22;2527;50.892;16.706;2024-02-23T07:46:06;13.60;99.90
5017;DHT22;2527;50.892;16.706;2024-02-23T07:48:37;13.60;99.90
5017;DHT22;2527;50.892;16.706;2024-02-23T07:51:03;13.60;99.90
5017;DHT22;2527;50.892;16.706;2024-02-23T07:53:29;13.60;99.90
5017;DHT22;2527;50.892;16.706;2024-02-23T07:55:55;13.60;99.90
5017;DHT22;2527;50.892;16.706;2024-02-23T07:58:21;13.60;99.90
5017;DHT22;2527;50.892;16.706;2024-02-23T08:00:46;13.60;99.90
5017;DHT22;2527;50.892;16.706;2024-02-23T08:03:13;13.60;99.90
5017;DHT22;2527;50.892;16.706;2024-02-23T08:05:40;13.60;99.90
5017;DHT22;2527;50.892;16.706;2024-02-23T08:08:05;13.60;99.90
5017;DHT22;2527;50.892;16.706;2024-02-23T08:10:32;13.60;99.90
5017;DHT22;2527;50.892;16.706;2024-02-23T08:12:58;13.70;99.90
5017;DHT22;2527;50.892;16.706;2024-02-23T08:15:27;13.60;99.90
5017;DHT22;2527;50.892;16.706;2024-02-23T08:17:52;13.60;99.90
5017;DHT22;2527;50.892;16.706;2024-02-23T08:20:18;13.60;99.90
5017;DHT22;2527;50.892;16.706;2024-02-23T08:22:44;13.60;99.90
5017;DHT22;2527;50.892;16.706;2024-02-23T08:25:10;13.60;99.90
5017;DHT22;2527;50.892;16.706;2024-02-23T08:27:36;13.60;99.90
5017;DHT22;2527;50.892;16.706;2024-02-23T08:30:02;13.60;99.90
5017;DHT22;2527;50.892;16.706;2024-02-23T08:32:31;13.60;99.90
5017;DHT22;2527;50.892;16.706;2024-02-23T08:34:56;13.60;99.90
5017;DHT22;2527;50.892;16.706;2024-02-23T08:37:25;13.60;99.90
5017;DHT22;2527;50.892;16.706;2024-02-23T08:39:52;13.60;99.90
5017;DHT22;2527;50.892;16.706;2024-02-23T08:42:18;13.60;99.90
5017;DHT22;2527;50.892;16.706;2024-02-23T08:44:44;13.60;99.90
5017;DHT22;2527;50.892;16.706;2024-02-23T08:47:10;13.60;99.90
5017;DHT22;2527;50.892;16.706;2024-02-23T08:49:36;13.60;99.90
5017;DHT22;2527;50.892;16.706;2024-02-23T08:52:02;13.60;99.90
5017;DHT22;2527;50.892;16.706;2024-02-23T08:54:29;13.60;99.90
5017;DHT22;2527;50.892;16.706;2024-02-23T08:56:55;13.60;99.90
5017;DHT22;2527;50.892;16.706;2024-02-23T08:59:21;13.60;99.90
5017;DHT22;2527;50.892;16.706;2024-02-23T09:01:48;13.60;99.90
5017;DHT22;2527;50.892;16.706;2024-02-23T09:04:14;13.60;99.90
5017;DHT22;2527;50.892;16.706;2024-02-23T09:06:40;13.60;99.90
5017;DHT22;2527;50.892;16.706;2024-02-23T09:09:14;13.60;99.90
5017;DHT22;2527;50.892;16.706;2024-02-23T09:11:39;13.60;99.90
5017;DHT22;2527;50.892;16.706;2024-02-23T09:14:05;13.60;99.90
5017;DHT22;2527;50.892;16.706;2024-02-23T09:16:31;13.60;99.90
5017;DHT22;2527;50.892;16.706;2024-02-23T09:18:57;13.60;99.90
5017;DHT22;2527;50.892;16.706;2024-02-23T09:21:26;13.60;99.90
5017;DHT22;2527;50.892;16.706;2024-02-23T09:23:51;13.50;99.90
5017;DHT22;2527;50.892;16.706;2024-02-23T09:26:18;13.50;99.90
5017;DHT22;2527;50.892;16.706;2024-02-23T09:28:43;13.40;99.90
5017;DHT22;2527;50.892;16.706;2024-02-23T09:31:10;13.30;99.90
5017;DHT22;2527;50.892;16.706;2024-02-23T09:33:37;13.30;99.90
5017;DHT22;2527;50.892;16.706;2024-02-23T09:36:03;13.30;99.90
5017;DHT22;2527;50.892;16.706;2024-02-23T09:38:36;13.20;99.90
5017;DHT22;2527;50.892;16.706;2024-02-23T09:41:02;13.20;99.90
5017;DHT22;2527;50.892;16.706;2024-02-23T09:43:30;13.20;99.90
5017;DHT22;2527;50.892;16.706;2024-02-23T09:45:57;13.20;99.90
5017;DHT22;2527;50.892;16.706;2024-02-23T09:48:23;13.20;99.90
5017;DHT22;2527;50.892;16.706;2024-02-23T09:50:51;13.10;99.90
5017;DHT22;2527;50.892;16.706;2024-02-23T09:53:19;13.10;99.90
5017;DHT22;2527;50.892;16.706;2024-02-23T09:55:47;13.10;99.90
5017;DHT22;2527;50.892;16.706;2024-02-23T09:58:13;13.10;99.90
5017;DHT22;2527;50.892;16.706;2024-02-23T10:00:42;13.10;99.90
5017;DHT22;2527;50.892;16.706;2024-02-23T10:03:09;13.10;99.90
5017;DHT22;2527;50.892;16.706;2024-02-23T10:05:34;13.10;99.90
5017;DHT22;2527;50.892;16.706;2024-02-23T10:08:00;13.10;99.90
5017;DHT22;2527;50.892;16.706;2024-02-23T10:10:34;13.10;99.90
5017;DHT22;2527;50.892;16.706;2024-02-23T10:13:00;13.10;99.90
5017;DHT22;2527;50.892;16.706;2024-02-23T10:15:26;13.10;99.90
5017;DHT22;2527;50.892;16.706;2024-02-23T10:17:55;13.10;99.90
5017;DHT22;2527;50.892;16.706;2024-02-23T10:20:25;13.10;99.90
5017;DHT22;2527;50.892;16.706;2024-02-23T10:22:51;13.10;99.90
5017;DHT22;2527;50.892;16.706;2024-02-23T10:25:19;13.10;99.90
5017;DHT22;2527;50.892;16.706;2024-02-23T10:27:44;13.00;99.90
5017;DHT22;2527;50.892;16.706;2024-02-23T10:30:10;13.00;99.90
5017;DHT22;2527;50.892;16.706;2024-02-23T10:32:38;13.10;99.90
5017;DHT22;2527;50.892;16.706;2024-02-23T10:35:03;13.10;99.90
5017;DHT22;2527;50.892;16.706;2024-02-23T10:37:33;13.10;99.90
5017;DHT22;2527;50.892;16.706;2024-02-23T10:40:02;13.10;99.90
5017;DHT22;2527;50.892;16.706;2024-02-23T10:42:34;13.10;99.90
5017;DHT22;2527;50.892;16.706;2024-02-23T10:45:01;13.10;99.90
5017;DHT22;2527;50.892;16.706;2024-02-23T10:47:28;13.10;99.90
5017;DHT22;2527;50.892;16.706;2024-02-23T10:50:02;13.10;99.90
5017;DHT22;2527;50.892;16.706;2024-02-23T10:52:28;13.10;99.90
5017;DHT22;2527;50.892;16.706;2024-02-23T10:54:53;13.10;99.90
5017;DHT22;2527;50.892;16.706;2024-02-23T10:57:19;13.10;99.90
5017;DHT22;2527;50.892;16.706;2024-02-23T10:59:48;13.10;99.90
5017;DHT22;2527;50.892;16.706;2024-02-23T11:02:14;13.10;99.90
5017;DHT22;2527;50.892;16.706;2024-02-23T11:04:45;13.20;99.90
5017;DHT22;2527;50.892;16.706;2024-02-23T11:07:14;13.20;99.90
5017;DHT22;2527;50.892;16.706;2024-02-23T11:09:40;13.20;99.90
5017;DHT22;2527;50.892;16.706;2024-02-23T11:12:09;13.20;99.90
5017;DHT22;2527;50.892;16.706;2024-02-23T11:14:36;13.20;99.90
5017;DHT22;2527;50.892;16.706;2024-02-23T11:17:02;13.20;99.90
5017;DHT22;2527;50.892;16.706;2024-02-23T11:19:32;13.20;99.90
5017;DHT22;2527;50.892;16.706;2024-02-23T11:21:58;13.20;99.90
5017;DHT22;2527;50.892;16.706;2024-02-23T11:24:25;13.20;99.90
5017;DHT22;2527;50.892;16.706;2024-02-23T11:26:55;13.20;99.90
5017;DHT22;2527;50.892;16.706;2024-02-23T11:29:21;13.10;99.90
5017;DHT22;2527;50.892;16.706;2024-02-23T11:31:47;13.20;99.90
5017;DHT22;2527;50.892;16.706;2024-02-23T11:34:14;13.10;99.90
5017;DHT22;2527;50.892;16.706;2024-02-23T11:36:50;13.20;99.90
5017;DHT22;2527;50.892;16.706;2024-02-23T11:39:16;13.20;99.90
5017;DHT22;2527;50.892;16.706;2024-02-23T11:41:42;13.20;99.90
5017;DHT22;2527;50.892;16.706;2024-02-23T11:44:08;13.20;99.90
5017;DHT22;2527;50.892;16.706;2024-02-23T11:46:34;13.20;99.90
5017;DHT22;2527;50.892;16.706;2024-02-23T11:49:00;13.10;99.90
5017;DHT22;2527;50.892;16.706;2024-02-23T11:51:27;13.10;99.90
5017;DHT22;2527;50.892;16.706;2024-02-23T11:53:55;13.10;99.90
5017;DHT22;2527;50.892;16.706;2024-02-23T11:56:23;13.00;99.90
5017;DHT22;2527;50.892;16.706;2024-02-23T11:58:49;13.00;99.90
5017;DHT22;2527;50.892;16.706;2024-02-23T12:01:15;13.00;99.90
5017;DHT22;2527;50.892;16.706;2024-02-23T12:03:41;13.10;99.90
5017;DHT22;2527;50.892;16.706;2024-02-23T12:06:09;13.10;99.90
5017;DHT22;2527;50.892;16.706;2024-02-23T12:08:38;13.10;99.90
5017;DHT22;2527;50.892;16.706;2024-02-23T12:11:04;13.10;99.90
5017;DHT22;2527;50.892;16.706;2024-02-23T12:13:34;13.00;99.90
5017;DHT22;2527;50.892;16.706;2024-02-23T12:16:01;13.00;99.90
5017;DHT22;2527;50.892;16.706;2024-02-23T12:18:27;13.00;99.90
5017;DHT22;2527;50.892;16.706;2024-02-23T12:21:01;13.00;99.90
5017;DHT22;2527;50.892;16.706;2024-02-23T12:26:05;13.00;99.90
5017;DHT22;2527;50.892;16.706;2024-02-23T12:28:31;13.00;99.90
5017;DHT22;2527;50.892;16.706;2024-02-23T12:31:01;12.90;99.90
5017;DHT22;2527;50.892;16.706;2024-02-23T12:33:27;12.90;99.90
5017;DHT22;2527;50.892;16.706;2024-02-23T12:35:54;13.00;99.90
5017;DHT22;2527;50.892;16.706;2024-02-23T12:38:21;13.00;99.90
5017;DHT22;2527;50.892;16.706;2024-02-23T12:40:48;13.00;99.90
5017;DHT22;2527;50.892;16.706;2024-02-23T12:43:13;13.00;99.90
5017;DHT22;2527;50.892;16.706;2024-02-23T12:45:39;13.10;99.90
5017;DHT22;2527;50.892;16.706;2024-02-23T12:48:05;13.10;99.90
5017;DHT22;2527;50.892;16.706;2024-02-23T12:50:31;13.00;99.90
5017;DHT22;2527;50.892;16.706;2024-02-23T12:52:57;13.10;99.90
5017;DHT22;2527;50.892;16.706;2024-02-23T12:55:24;13.00;99.90
5017;DHT22;2527;50.892;16.706;2024-02-23T12:57:50;13.00;99.90
5017;DHT22;2527;50.892;16.706;2024-02-23T13:00:16;12.90;99.90
5017;DHT22;2527;50.892;16.706;2024-02-23T13:02:43;12.90;99.90
5017;DHT22;2527;50.892;16.706;2024-02-23T13:05:09;12.90;99.90
5017;DHT22;2527;50.892;16.706;2024-02-23T13:07:35;12.90;99.90
5017;DHT22;2527;50.892;16.706;2024-02-23T13:10:01;13.00;99.90
5017;DHT22;2527;50.892;16.706;2024-02-23T13:12:27;12.90;99.90
5017;DHT22;2527;50.892;16.706;2024-02-23T13:14:52;12.90;99.90
5017;DHT22;2527;50.892;16.706;2024-02-23T13:17:19;12.20;99.90
5017;DHT22;2527;50.892;16.706;2024-02-23T13:19:45;12.90;99.90
5017;DHT22;2527;50.892;16.706;2024-02-23T13:22:11;12.90;99.90
5017;DHT22;2527;50.892;16.706;2024-02-23T13:24:37;13.00;99.90
5017;DHT22;2527;50.892;16.706;2024-02-23T13:27:05;12.90;99.90
5017;DHT22;2527;50.892;16.706;2024-02-23T13:29:32;12.90;99.90
5017;DHT22;2527;50.892;16.706;2024-02-23T13:31:58;12.90;99.90
5017;DHT22;2527;50.892;16.706;2024-02-23T13:34:24;12.90;99.90
5017;DHT22;2527;50.892;16.706;2024-02-23T13:36:51;12.80;99.90
5017;DHT22;2527;50.892;16.706;2024-02-23T13:39:18;12.80;99.90
5017;DHT22;2527;50.892;16.706;2024-02-23T13:41:44;12.80;99.90
5017;DHT22;2527;50.892;16.706;2024-02-23T13:44:09;12.80;99.90
5017;DHT22;2527;50.892;16.706;2024-02-23T13:46:37;12.80;99.90
5017;DHT22;2527;50.892;16.706;2024-02-23T13:49:07;12.80;99.90
5017;DHT22;2527;50.892;16.706;2024-02-23T13:51:34;12.80;99.90
5017;DHT22;2527;50.892;16.706;2024-02-23T13:54:00;12.70;99.90
5017;DHT22;2527;50.892;16.706;2024-02-23T13:56:26;12.80;99.90
5017;DHT22;2527;50.892;16.706;2024-02-23T13:58:53;12.80;99.90
5017;DHT22;2527;50.892;16.706;2024-02-23T14:01:18;12.80;99.90
5017;DHT22;2527;50.892;16.706;2024-02-23T14:03:44;12.70;99.90
5017;DHT22;2527;50.892;16.706;2024-02-23T14:06:10;12.80;99.90
5017;DHT22;2527;50.892;16.706;2024-02-23T14:08:39;12.80;99.90
5017;DHT22;2527;50.892;16.706;2024-02-23T14:11:07;12.80;99.90
5017;DHT22;2527;50.892;16.706;2024-02-23T14:13:34;12.90;99.90
5017;DHT22;2527;50.892;16.706;2024-02-23T14:16:00;12.90;99.90
5017;DHT22;2527;50.892;16.706;2024-02-23T14:18:27;12.80;99.90
5017;DHT22;2527;50.892;16.706;2024-02-23T14:20:56;12.90;99.90
5017;DHT22;2527;50.892;16.706;2024-02-23T14:23:22;12.60;99.90
5017;DHT22;2527;50.892;16.706;2024-02-23T14:25:50;12.90;99.90
5017;DHT22;2527;50.892;16.706;2024-02-23T14:28:16;12.80;99.90
5017;DHT22;2527;50.892;16.706;2024-02-23T14:30:42;12.80;99.90
5017;DHT22;2527;50.892;16.706;2024-02-23T14:33:08;12.80;99.90
5017;DHT22;2527;50.892;16.706;2024-02-23T14:35:34;12.70;99.90
5017;DHT22;2527;50.892;16.706;2024-02-23T14:38:01;12.60;99.90
5017;DHT22;2527;50.892;16.706;2024-02-23T14:40:27;12.60;99.90
5017;DHT22;2527;50.892;16.706;2024-02-23T14:42:53;12.60;99.90
5017;DHT22;2527;50.892;16.706;2024-02-23T14:45:19;12.60;99.90
5017;DHT22;2527;50.892;16.706;2024-02-23T14:47:48;12.60;99.90
5017;DHT22;2527;50.892;16.706;2024-02-23T14:50:14;12.60;99.90
5017;DHT22;2527;50.892;16.706;2024-02-23T14:52:39;12.50;99.90
5017;DHT22;2527;50.892;16.706;2024-02-23T14:55:06;12.60;99.90
5017;DHT22;2527;50.892;16.706;2024-02-23T14:57:34;12.50;99.90
5017;DHT22;2527;50.892;16.706;2024-02-23T14:59:59;12.50;99.90
5017;DHT22;2527;50.892;16.706;2024-02-23T15:02:26;12.50;99.90
5017;DHT22;2527;50.892;16.706;2024-02-23T15:04:54;12.50;99.90
5017;DHT22;2527;50.892;16.706;2024-02-23T15:07:20;12.40;99.90
5017;DHT22;2527;50.892;16.706;2024-02-23T15:09:48;12.50;99.90
5017;DHT22;2527;50.892;16.706;2024-02-23T15:12:15;12.40;99.90
5017;DHT22;2527;50.892;16.706;2024-02-23T15:14:42;12.40;99.90
5017;DHT22;2527;50.892;16.706;2024-02-23T15:17:08;12.40;99.90
5017;DHT22;2527;50.892;16.706;2024-02-23T15:19:33;12.40;99.90
5017;DHT22;2527;50.892;16.706;2024-02-23T15:21:59;12.30;99.90
5017;DHT22;2527;50.892;16.706;2024-02-23T15:24:25;12.30;99.90
5017;DHT22;2527;50.892;16.706;2024-02-23T15:26:51;12.30;99.90
5017;DHT22;2527;50.892;16.706;2024-02-23T15:29:17;12.20;99.90
5017;DHT22;2527;50.892;16.706;2024-02-23T15:31:43;12.10;99.90
5017;DHT22;2527;50.892;16.706;2024-02-23T15:34:12;12.20;99.90
5017;DHT22;2527;50.892;16.706;2024-02-23T15:36:53;12.20;99.90
5017;DHT22;2527;50.892;16.706;2024-02-23T15:39:19;12.10;99.90
5017;DHT22;2527;50.892;16.706;2024-02-23T15:41:45;12.10;99.90
5017;DHT22;2527;50.892;16.706;2024-02-23T15:44:11;12.00;99.90
5017;DHT22;2527;50.892;16.706;2024-02-23T15:46:37;12.00;99.90
5017;DHT22;2527;50.892;16.706;2024-02-23T15:49:03;11.90;99.90